createdAt,value
2017-10-10T00:00:04.779Z,12.12
2017-10-10T00:01:13.611Z,12.05
2017-10-10T00:02:22.444Z,12.1
2017-10-10T00:03:31.275Z,12.09
2017-10-10T00:04:40.111Z,12.04
2017-10-10T00:05:48.994Z,11.95
2017-10-10T00:06:57.826Z,11.96
2017-10-10T00:08:06.663Z,11.99
2017-10-10T00:09:15.841Z,12.07
2017-10-10T00:10:24.673Z,11.96
2017-10-10T00:11:33.559Z,11.91
2017-10-10T00:12:42.389Z,11.9
2017-10-10T00:13:51.223Z,11.88
2017-10-10T00:15:00.055Z,11.95
2017-10-10T00:16:08.890Z,11.91
2017-10-10T00:17:17.873Z,11.86
2017-10-10T00:18:26.710Z,11.95
2017-10-10T00:19:35.537Z,11.95
2017-10-10T00:20:44.369Z,11.85
2017-10-10T00:21:53.200Z,11.88
2017-10-10T00:23:02.081Z,11.91
2017-10-10T00:24:10.912Z,11.9
2017-10-10T00:25:19.747Z,11.91
2017-10-10T00:26:28.577Z,11.95
2017-10-10T00:27:37.411Z,11.86
2017-10-10T00:28:46.344Z,11.91
2017-10-10T00:29:55.176Z,11.9
2017-10-10T00:31:04.010Z,11.9
2017-10-10T00:32:12.842Z,11.9
2017-10-10T00:33:21.677Z,11.86
2017-10-10T00:34:30.808Z,11.9
2017-10-10T00:35:39.642Z,11.91
2017-10-10T00:36:48.820Z,11.83
2017-10-10T00:37:57.654Z,11.91
2017-10-10T00:39:06.487Z,11.91
2017-10-10T00:40:15.475Z,11.83
2017-10-10T00:41:24.650Z,11.95
2017-10-10T00:42:33.489Z,11.86
2017-10-10T00:43:42.316Z,11.9
2017-10-10T00:44:51.150Z,11.9
2017-10-10T00:46:00.289Z,11.82
2017-10-10T00:47:09.810Z,11.86
2017-10-10T00:48:18.641Z,11.78
2017-10-10T00:49:27.472Z,11.8
2017-10-10T00:50:36.304Z,11.79
2017-10-10T00:51:45.236Z,11.91
2017-10-10T00:52:54.069Z,11.86
2017-10-10T00:54:02.906Z,11.88
2017-10-10T00:55:11.734Z,11.82
2017-10-10T00:56:20.567Z,11.8
2017-10-10T00:57:29.448Z,11.79
2017-10-10T00:58:38.277Z,11.75
2017-10-10T00:59:47.108Z,11.79
2017-10-10T01:00:55.942Z,11.75
2017-10-10T01:02:04.775Z,11.8
2017-10-10T01:03:13.809Z,11.73
2017-10-10T01:04:22.641Z,11.7
2017-10-10T01:05:31.474Z,11.78
2017-10-10T01:06:40.306Z,11.72
2017-10-10T01:07:49.138Z,11.76
2017-10-10T01:08:58.169Z,11.83
2017-10-10T01:10:07.001Z,11.76
2017-10-10T01:11:15.833Z,11.78
2017-10-10T01:12:25.012Z,11.75
2017-10-10T01:13:33.841Z,11.75
2017-10-10T01:14:42.824Z,11.79
2017-10-10T01:15:51.656Z,11.75
2017-10-10T01:17:00.489Z,11.79
2017-10-10T01:18:09.321Z,11.76
2017-10-10T01:19:18.155Z,11.76
2017-10-10T01:20:27.136Z,11.76
2017-10-10T01:21:35.971Z,11.79
2017-10-10T01:22:44.803Z,11.79
2017-10-10T01:23:53.635Z,11.79
2017-10-10T01:25:02.466Z,11.79
2017-10-10T01:26:11.550Z,11.75
2017-10-10T01:27:20.383Z,11.75
2017-10-10T01:28:29.215Z,11.75
2017-10-10T01:29:38.047Z,11.73
2017-10-10T01:30:46.878Z,11.73
2017-10-10T01:31:55.757Z,11.76
2017-10-10T01:33:04.588Z,11.73
2017-10-10T01:34:13.770Z,11.73
2017-10-10T01:35:22.607Z,11.69
2017-10-10T01:36:31.440Z,11.8
2017-10-10T01:37:40.666Z,11.76
2017-10-10T01:38:49.498Z,11.79
2017-10-10T01:39:58.333Z,11.8
2017-10-10T01:41:07.169Z,11.82
2017-10-10T01:42:16.004Z,11.82
2017-10-10T01:43:25.236Z,11.75
2017-10-10T01:44:34.413Z,11.82
2017-10-10T01:45:43.590Z,11.82
2017-10-10T01:46:52.422Z,11.76
2017-10-10T01:48:01.256Z,11.76
2017-10-10T01:49:10.090Z,11.75
2017-10-10T01:50:18.921Z,11.78
2017-10-10T01:51:27.756Z,11.75
2017-10-10T01:52:36.592Z,11.78
2017-10-10T01:53:45.423Z,11.82
2017-10-10T01:54:54.557Z,11.95
2017-10-10T01:56:03.391Z,11.85
2017-10-10T01:57:12.225Z,11.88
2017-10-10T01:58:21.054Z,11.88
2017-10-10T01:59:29.885Z,11.83
2017-10-10T02:00:38.816Z,11.9
2017-10-10T02:01:47.670Z,11.88
2017-10-10T02:02:56.482Z,11.83
2017-10-10T02:04:05.314Z,11.88
2017-10-10T02:05:14.147Z,11.85
2017-10-10T02:06:23.280Z,11.86
2017-10-10T02:07:32.118Z,11.83
2017-10-10T02:08:40.952Z,11.85
2017-10-10T02:09:49.784Z,11.88
2017-10-10T02:10:58.616Z,11.91
2017-10-10T02:12:07.499Z,11.9
2017-10-10T02:13:16.328Z,11.86
2017-10-10T02:14:25.157Z,11.85
2017-10-10T02:15:33.989Z,11.9
2017-10-10T02:16:42.823Z,11.91
2017-10-10T02:17:51.707Z,11.83
2017-10-10T02:19:00.544Z,11.83
2017-10-10T02:20:09.374Z,11.91
2017-10-10T02:21:18.207Z,11.96
2017-10-10T02:22:27.041Z,11.83
2017-10-10T02:23:35.872Z,11.91
2017-10-10T02:24:44.703Z,11.88
2017-10-10T02:25:53.537Z,11.85
2017-10-10T02:27:02.368Z,11.88
2017-10-10T02:28:11.203Z,11.85
2017-10-10T02:29:20.286Z,11.83
2017-10-10T02:30:29.117Z,11.9
2017-10-10T02:31:37.946Z,11.86
2017-10-10T02:32:46.779Z,11.83
2017-10-10T02:33:55.611Z,11.85
2017-10-10T02:35:04.794Z,11.91
2017-10-10T02:36:13.628Z,11.9
2017-10-10T02:37:22.459Z,11.88
2017-10-10T02:38:31.290Z,11.91
2017-10-10T02:39:40.122Z,11.86
2017-10-10T02:40:48.953Z,11.86
2017-10-10T02:41:57.787Z,11.94
2017-10-10T02:43:06.621Z,11.91
2017-10-10T02:44:15.503Z,11.9
2017-10-10T02:45:24.338Z,11.99
2017-10-10T02:46:33.320Z,11.99
2017-10-10T02:47:42.157Z,11.94
2017-10-10T02:48:50.982Z,11.9
2017-10-10T02:49:59.812Z,11.91
2017-10-10T02:51:09.018Z,11.94
2017-10-10T02:52:17.899Z,11.98
2017-10-10T02:53:26.732Z,11.96
2017-10-10T02:54:35.566Z,11.95
2017-10-10T02:55:44.400Z,11.95
2017-10-10T02:56:53.233Z,11.88
2017-10-10T02:58:02.215Z,11.95
2017-10-10T02:59:11.046Z,12.02
2017-10-10T03:00:19.881Z,11.91
2017-10-10T03:01:28.712Z,11.94
2017-10-10T03:02:37.544Z,12.09
2017-10-10T03:03:46.573Z,12.09
2017-10-10T03:04:55.748Z,12.02
2017-10-10T03:06:04.928Z,12.04
2017-10-10T03:07:13.761Z,11.95
2017-10-10T03:08:22.594Z,12.02
2017-10-10T03:09:31.726Z,12.04
2017-10-10T03:10:40.559Z,12.13
2017-10-10T03:11:49.395Z,12.02
2017-10-10T03:12:58.224Z,12.05
2017-10-10T03:14:07.058Z,12.1
2017-10-10T03:15:16.287Z,12.04
2017-10-10T03:16:25.116Z,12.1
2017-10-10T03:17:33.948Z,12.05
2017-10-10T03:18:42.782Z,12.04
2017-10-10T03:19:51.615Z,12.1
2017-10-10T03:21:00.448Z,12.1
2017-10-10T03:22:09.279Z,12.09
2017-10-10T03:23:18.111Z,12.05
2017-10-10T03:24:26.950Z,12.09
2017-10-10T03:25:35.777Z,12.1
2017-10-10T03:26:44.706Z,12.17
2017-10-10T03:27:53.538Z,12.14
2017-10-10T03:29:02.373Z,12.12
2017-10-10T03:30:11.203Z,12.07
2017-10-10T03:31:20.402Z,12.16
2017-10-10T03:32:29.762Z,12.05
2017-10-10T03:33:38.593Z,12.12
2017-10-10T03:34:47.768Z,12.16
2017-10-10T03:35:56.598Z,12.2
2017-10-10T03:37:05.429Z,12.05
2017-10-10T03:38:14.413Z,12.19
2017-10-10T03:39:23.245Z,12.16
2017-10-10T03:40:32.419Z,12.13
2017-10-10T03:41:41.258Z,12.19
2017-10-10T03:42:50.086Z,12.2
2017-10-10T03:43:59.073Z,12.19
2017-10-10T03:45:07.901Z,12.12
2017-10-10T03:46:17.077Z,12.17
2017-10-10T03:47:25.911Z,12.14
2017-10-10T03:48:34.745Z,12.13
2017-10-10T03:49:43.731Z,12.24
2017-10-10T03:50:52.564Z,12.16
2017-10-10T03:52:01.396Z,12.17
2017-10-10T03:53:10.229Z,12.17
2017-10-10T03:54:19.062Z,12.13
2017-10-10T03:55:27.945Z,12.14
2017-10-10T03:56:36.777Z,12.19
2017-10-10T03:57:45.611Z,12.14
2017-10-10T03:58:54.783Z,12.14
2017-10-10T04:00:03.614Z,12.17
2017-10-10T04:01:12.497Z,12.19
2017-10-10T04:02:21.329Z,12.19
2017-10-10T04:03:30.161Z,12.28
2017-10-10T04:04:38.993Z,12.27
2017-10-10T04:05:47.826Z,12.31
2017-10-10T04:06:56.810Z,12.28
2017-10-10T04:08:05.644Z,12.28
2017-10-10T04:09:14.475Z,12.29
2017-10-10T04:10:23.304Z,12.27
2017-10-10T04:11:32.136Z,12.29
2017-10-10T04:12:41.271Z,12.24
2017-10-10T04:13:50.102Z,12.28
2017-10-10T04:14:58.936Z,12.32
2017-10-10T04:16:07.769Z,12.2
2017-10-10T04:17:16.603Z,12.27
2017-10-10T04:18:25.534Z,12.27
2017-10-10T04:19:34.712Z,12.27
2017-10-10T04:20:43.545Z,12.28
2017-10-10T04:21:52.378Z,12.32
2017-10-10T04:23:01.211Z,12.32
2017-10-10T04:24:10.094Z,12.21
2017-10-10T04:25:18.927Z,12.28
2017-10-10T04:26:27.764Z,12.31
2017-10-10T04:27:36.600Z,12.28
2017-10-10T04:28:45.432Z,12.38
2017-10-10T04:29:54.415Z,12.29
2017-10-10T04:31:03.590Z,12.34
2017-10-10T04:32:12.422Z,12.28
2017-10-10T04:33:21.256Z,12.31
2017-10-10T04:34:30.089Z,12.38
2017-10-10T04:35:39.172Z,12.28
2017-10-10T04:36:48.005Z,12.32
2017-10-10T04:37:56.838Z,12.32
2017-10-10T04:39:05.671Z,12.31
2017-10-10T04:40:14.502Z,12.37
2017-10-10T04:41:23.586Z,12.37
2017-10-10T04:42:32.418Z,12.41
2017-10-10T04:43:41.253Z,12.39
2017-10-10T04:44:50.086Z,12.38
2017-10-10T04:45:58.917Z,12.37
2017-10-10T04:47:07.902Z,12.41
2017-10-10T04:48:16.736Z,12.34
2017-10-10T04:49:25.569Z,12.32
2017-10-10T04:50:34.403Z,12.35
2017-10-10T04:51:43.235Z,12.42
2017-10-10T04:52:52.316Z,12.32
2017-10-10T04:54:01.147Z,12.37
2017-10-10T04:55:09.978Z,12.37
2017-10-10T04:56:18.812Z,12.45
2017-10-10T04:57:27.645Z,12.34
2017-10-10T04:58:36.727Z,12.38
2017-10-10T04:59:45.559Z,12.39
2017-10-10T05:00:54.391Z,12.41
2017-10-10T05:02:03.225Z,12.42
2017-10-10T05:03:12.056Z,12.47
2017-10-10T05:04:20.938Z,12.42
2017-10-10T05:05:29.770Z,12.47
2017-10-10T05:06:38.601Z,12.49
2017-10-10T05:07:47.433Z,12.41
2017-10-10T05:08:56.264Z,12.46
2017-10-10T05:10:05.199Z,12.42
2017-10-10T05:11:14.035Z,12.5
2017-10-10T05:12:22.867Z,12.45
2017-10-10T05:13:31.704Z,12.42
2017-10-10T05:14:40.537Z,12.46
2017-10-10T05:15:49.521Z,12.42
2017-10-10T05:16:58.355Z,12.41
2017-10-10T05:18:07.186Z,12.39
2017-10-10T05:19:16.019Z,12.47
2017-10-10T05:20:24.851Z,12.47
2017-10-10T05:21:33.685Z,12.45
2017-10-10T05:22:42.516Z,12.42
2017-10-10T05:23:51.347Z,12.41
2017-10-10T05:25:00.530Z,12.41
2017-10-10T05:26:09.361Z,12.41
2017-10-10T05:27:18.343Z,12.39
2017-10-10T05:28:27.189Z,12.45
2017-10-10T05:29:36.019Z,12.52
2017-10-10T05:30:44.852Z,12.49
2017-10-10T05:31:53.684Z,12.41
2017-10-10T05:33:02.725Z,12.49
2017-10-10T05:34:11.553Z,12.49
2017-10-10T05:35:20.388Z,12.42
2017-10-10T05:36:29.224Z,12.42
2017-10-10T05:37:38.056Z,12.45
2017-10-10T05:38:47.039Z,12.41
2017-10-10T05:39:55.870Z,12.39
2017-10-10T05:41:04.712Z,12.46
2017-10-10T05:42:13.537Z,12.42
2017-10-10T05:43:22.369Z,12.41
2017-10-10T05:44:31.203Z,12.47
2017-10-10T05:45:40.394Z,12.52
2017-10-10T05:46:49.228Z,12.47
2017-10-10T05:47:58.060Z,12.45
2017-10-10T05:49:06.894Z,12.46
2017-10-10T05:50:15.877Z,12.49
2017-10-10T05:51:24.710Z,12.42
2017-10-10T05:52:33.542Z,12.41
2017-10-10T05:53:42.371Z,12.49
2017-10-10T05:54:51.550Z,12.42
2017-10-10T05:56:00.430Z,12.53
2017-10-10T05:57:09.268Z,12.47
2017-10-10T05:58:18.092Z,12.49
2017-10-10T05:59:26.926Z,12.49
2017-10-10T06:00:35.761Z,12.46
2017-10-10T06:01:44.746Z,12.42
2017-10-10T06:02:53.579Z,12.5
2017-10-10T06:04:02.412Z,12.49
2017-10-10T06:05:11.244Z,12.47
2017-10-10T06:06:20.073Z,12.41
2017-10-10T06:07:29.351Z,12.49
2017-10-10T06:08:38.184Z,12.5
2017-10-10T06:09:47.022Z,12.49
2017-10-10T06:10:55.850Z,12.46
2017-10-10T06:12:04.683Z,12.47
2017-10-10T06:13:13.716Z,12.49
2017-10-10T06:14:22.546Z,12.5
2017-10-10T06:15:31.377Z,12.47
2017-10-10T06:16:40.208Z,12.46
2017-10-10T06:17:49.045Z,12.47
2017-10-10T06:18:58.271Z,12.47
2017-10-10T06:20:07.103Z,12.5
2017-10-10T06:21:15.936Z,12.56
2017-10-10T06:22:24.772Z,12.49
2017-10-10T06:23:33.600Z,12.52
2017-10-10T06:24:42.583Z,12.53
2017-10-10T06:25:51.418Z,12.47
2017-10-10T06:27:00.253Z,12.5
2017-10-10T06:28:09.084Z,12.45
2017-10-10T06:29:17.917Z,12.52
2017-10-10T06:30:27.049Z,12.52
2017-10-10T06:31:35.881Z,12.54
2017-10-10T06:32:44.711Z,12.57
2017-10-10T06:33:53.890Z,12.49
2017-10-10T06:35:02.723Z,12.5
2017-10-10T06:36:11.706Z,12.53
2017-10-10T06:37:20.536Z,12.56
2017-10-10T06:38:29.369Z,12.56
2017-10-10T06:39:38.202Z,12.6
2017-10-10T06:40:47.036Z,12.6
2017-10-10T06:41:56.371Z,12.64
2017-10-10T06:43:05.205Z,12.5
2017-10-10T06:44:14.038Z,12.6
2017-10-10T06:45:22.875Z,12.53
2017-10-10T06:46:31.711Z,12.56
2017-10-10T06:47:40.986Z,12.54
2017-10-10T06:48:49.820Z,12.67
2017-10-10T06:49:58.654Z,12.62
2017-10-10T06:51:07.487Z,12.62
2017-10-10T06:52:16.321Z,12.49
2017-10-10T06:53:25.256Z,12.59
2017-10-10T06:54:34.089Z,12.54
2017-10-10T06:55:42.922Z,12.65
2017-10-10T06:56:51.755Z,12.65
2017-10-10T06:58:00.590Z,12.7
2017-10-10T06:59:09.677Z,12.68
2017-10-10T07:00:18.855Z,12.68
2017-10-10T07:01:28.031Z,12.7
2017-10-10T07:02:36.863Z,12.7
2017-10-10T07:03:45.695Z,12.67
2017-10-10T07:04:55.071Z,12.7
2017-10-10T07:06:03.908Z,12.67
2017-10-10T07:07:13.082Z,12.7
2017-10-10T07:08:21.913Z,12.7
2017-10-10T07:09:30.747Z,12.68
2017-10-10T07:10:39.782Z,12.68
2017-10-10T07:11:48.615Z,12.75
2017-10-10T07:12:57.448Z,12.75
2017-10-10T07:14:06.281Z,12.64
2017-10-10T07:15:15.155Z,12.71
2017-10-10T07:16:24.053Z,12.7
2017-10-10T07:17:32.886Z,12.78
2017-10-10T07:18:41.719Z,12.79
2017-10-10T07:19:50.551Z,12.79
2017-10-10T07:20:59.738Z,12.7
2017-10-10T07:22:08.867Z,12.7
2017-10-10T07:23:17.695Z,12.83
2017-10-10T07:24:26.529Z,12.79
2017-10-10T07:25:35.363Z,12.77
2017-10-10T07:26:44.196Z,12.64
2017-10-10T07:27:53.081Z,12.64
2017-10-10T07:29:02.269Z,12.68
2017-10-10T07:30:11.103Z,12.64
2017-10-10T07:31:19.939Z,12.68
2017-10-10T07:32:28.772Z,12.75
2017-10-10T07:33:37.702Z,12.75
2017-10-10T07:34:46.535Z,12.79
2017-10-10T07:35:55.723Z,12.77
2017-10-10T07:37:04.557Z,12.77
2017-10-10T07:38:13.388Z,12.75
2017-10-10T07:39:22.322Z,12.77
2017-10-10T07:40:31.156Z,12.77
2017-10-10T07:41:39.991Z,12.77
2017-10-10T07:42:48.822Z,12.78
2017-10-10T07:43:57.652Z,12.77
2017-10-10T07:45:06.536Z,12.79
2017-10-10T07:46:15.371Z,12.83
2017-10-10T07:47:24.203Z,12.75
2017-10-10T07:48:33.035Z,12.72
2017-10-10T07:49:41.868Z,12.75
2017-10-10T07:50:50.701Z,12.74
2017-10-10T07:51:59.534Z,12.77
2017-10-10T07:53:08.368Z,12.79
2017-10-10T07:54:17.202Z,12.74
2017-10-10T07:55:26.035Z,12.79
2017-10-10T07:56:35.020Z,12.79
2017-10-10T07:57:43.854Z,12.85
2017-10-10T07:58:52.685Z,12.79
2017-10-10T08:00:01.518Z,12.87
2017-10-10T08:01:10.352Z,12.87
2017-10-10T08:02:19.234Z,12.83
2017-10-10T08:03:28.068Z,12.85
2017-10-10T08:04:36.901Z,12.86
2017-10-10T08:05:45.741Z,12.95
2017-10-10T08:06:54.915Z,12.86
2017-10-10T08:08:04.049Z,12.86
2017-10-10T08:09:12.883Z,12.9
2017-10-10T08:10:21.721Z,12.93
2017-10-10T08:11:30.549Z,12.93
2017-10-10T08:12:39.382Z,13.01
2017-10-10T08:13:48.316Z,12.97
2017-10-10T08:14:57.146Z,12.96
2017-10-10T08:16:05.974Z,13.01
2017-10-10T08:17:14.807Z,13.01
2017-10-10T08:18:23.638Z,13.03
2017-10-10T08:19:32.875Z,13.11
2017-10-10T08:20:41.715Z,13.11
2017-10-10T08:21:50.551Z,13.19
2017-10-10T08:22:59.723Z,13.15
2017-10-10T08:24:08.555Z,13.23
2017-10-10T08:25:17.488Z,13.28
2017-10-10T08:26:26.324Z,13.28
2017-10-10T08:27:35.156Z,13.26
2017-10-10T08:28:43.996Z,13.32
2017-10-10T08:29:53.175Z,13.32
2017-10-10T08:31:02.008Z,13.36
2017-10-10T08:32:10.847Z,13.29
2017-10-10T08:33:20.024Z,13.3
2017-10-10T08:34:28.855Z,13.38
2017-10-10T08:35:37.687Z,13.36
2017-10-10T08:36:46.572Z,13.32
2017-10-10T08:37:55.749Z,13.42
2017-10-10T08:39:04.581Z,13.51
2017-10-10T08:40:13.415Z,13.45
2017-10-10T08:41:22.248Z,13.41
2017-10-10T08:42:31.431Z,13.48
2017-10-10T08:43:40.267Z,13.54
2017-10-10T08:44:49.099Z,13.55
2017-10-10T08:45:57.946Z,13.66
2017-10-10T08:47:06.769Z,13.7
2017-10-10T08:48:15.754Z,13.73
2017-10-10T08:49:24.590Z,13.71
2017-10-10T08:50:33.424Z,13.79
2017-10-10T08:51:42.260Z,13.73
2017-10-10T08:52:51.091Z,13.73
2017-10-10T08:54:00.177Z,13.77
2017-10-10T08:55:09.011Z,13.78
2017-10-10T08:56:17.846Z,13.75
2017-10-10T08:57:26.679Z,13.79
2017-10-10T08:58:35.515Z,13.85
2017-10-10T08:59:44.399Z,13.82
2017-10-10T09:00:53.232Z,13.87
2017-10-10T09:02:02.065Z,13.88
2017-10-10T09:03:10.899Z,13.91
2017-10-10T09:04:19.733Z,13.89
2017-10-10T09:05:28.667Z,13.92
2017-10-10T09:06:37.501Z,13.89
2017-10-10T09:07:46.689Z,13.95
2017-10-10T09:08:55.523Z,13.91
2017-10-10T09:10:04.356Z,13.96
2017-10-10T09:11:13.292Z,13.95
2017-10-10T09:12:22.126Z,13.99
2017-10-10T09:13:30.959Z,13.97
2017-10-10T09:14:39.795Z,13.96
2017-10-10T09:15:48.632Z,13.96
2017-10-10T09:16:57.518Z,14.04
2017-10-10T09:18:06.357Z,13.91
2017-10-10T09:19:15.538Z,14.02
2017-10-10T09:20:24.714Z,14.06
2017-10-10T09:21:33.550Z,14.07
2017-10-10T09:22:42.436Z,14.04
2017-10-10T09:23:51.271Z,14.06
2017-10-10T09:25:00.124Z,14.09
2017-10-10T09:26:08.944Z,14.2
2017-10-10T09:27:18.130Z,14.15
2017-10-10T09:28:27.020Z,14.21
2017-10-10T09:29:35.852Z,14.28
2017-10-10T09:30:44.685Z,14.32
2017-10-10T09:31:53.519Z,14.33
2017-10-10T09:33:02.356Z,14.51
2017-10-10T09:34:11.240Z,14.47
2017-10-10T09:35:20.127Z,14.46
2017-10-10T09:36:29.304Z,14.58
2017-10-10T09:37:38.136Z,14.52
2017-10-10T09:38:46.971Z,14.51
2017-10-10T09:39:55.862Z,14.57
2017-10-10T09:41:04.694Z,14.58
2017-10-10T09:42:13.528Z,14.51
2017-10-10T09:43:22.364Z,14.51
2017-10-10T09:44:31.202Z,14.68
2017-10-10T09:45:40.190Z,14.68
2017-10-10T09:46:49.020Z,14.64
2017-10-10T09:47:57.856Z,14.68
2017-10-10T09:49:06.694Z,14.65
2017-10-10T09:50:15.530Z,14.6
2017-10-10T09:51:24.365Z,14.68
2017-10-10T09:52:33.198Z,14.68
2017-10-10T09:53:42.032Z,14.7
2017-10-10T09:54:50.867Z,14.64
2017-10-10T09:55:59.702Z,14.69
2017-10-10T09:57:08.788Z,14.64
2017-10-10T09:58:17.621Z,14.68
2017-10-10T09:59:26.455Z,14.62
2017-10-10T10:00:35.291Z,14.7
2017-10-10T10:01:44.123Z,14.64
2017-10-10T10:02:53.009Z,14.75
2017-10-10T10:04:01.843Z,14.68
2017-10-10T10:05:10.678Z,14.68
2017-10-10T10:06:19.513Z,14.72
2017-10-10T10:07:28.356Z,14.73
2017-10-10T10:08:37.433Z,14.72
2017-10-10T10:09:46.267Z,14.65
2017-10-10T10:10:55.103Z,14.77
2017-10-10T10:12:03.938Z,14.78
2017-10-10T10:13:12.771Z,14.83
2017-10-10T10:14:21.659Z,14.83
2017-10-10T10:15:30.495Z,14.83
2017-10-10T10:16:39.330Z,14.8
2017-10-10T10:17:48.163Z,14.91
2017-10-10T10:18:56.998Z,14.88
2017-10-10T10:20:05.985Z,14.94
2017-10-10T10:21:14.823Z,14.78
2017-10-10T10:22:23.655Z,14.88
2017-10-10T10:23:32.491Z,14.84
2017-10-10T10:24:41.670Z,14.96
2017-10-10T10:25:50.556Z,14.95
2017-10-10T10:26:59.395Z,14.96
2017-10-10T10:28:08.574Z,15.07
2017-10-10T10:29:17.412Z,15.13
2017-10-10T10:30:26.247Z,15.14
2017-10-10T10:31:35.482Z,15.1
2017-10-10T10:32:44.317Z,15.17
2017-10-10T10:33:53.150Z,15.23
2017-10-10T10:35:01.986Z,15.28
2017-10-10T10:36:10.844Z,15.23
2017-10-10T10:37:19.707Z,15.28
2017-10-10T10:38:28.543Z,15.28
2017-10-10T10:39:37.376Z,15.27
2017-10-10T10:40:46.211Z,15.27
2017-10-10T10:41:55.045Z,15.28
2017-10-10T10:43:03.928Z,15.21
2017-10-10T10:44:12.763Z,15.21
2017-10-10T10:45:21.595Z,15.27
2017-10-10T10:46:30.429Z,15.36
2017-10-10T10:47:39.283Z,15.5
2017-10-10T10:48:48.248Z,15.49
2017-10-10T10:49:57.083Z,15.47
2017-10-10T10:51:05.924Z,15.64
2017-10-10T10:52:14.748Z,15.75
2017-10-10T10:53:23.587Z,15.72
2017-10-10T10:54:32.523Z,15.76
2017-10-10T10:55:41.361Z,15.78
2017-10-10T10:56:50.200Z,15.82
2017-10-10T10:57:59.378Z,15.76
2017-10-10T10:59:08.565Z,15.75
2017-10-10T11:00:17.451Z,15.78
2017-10-10T11:01:26.283Z,15.74
2017-10-10T11:02:35.117Z,15.67
2017-10-10T11:03:43.951Z,15.65
2017-10-10T11:04:52.785Z,15.65
2017-10-10T11:06:01.920Z,15.74
2017-10-10T11:07:10.755Z,15.84
2017-10-10T11:08:19.588Z,15.75
2017-10-10T11:09:28.424Z,15.84
2017-10-10T11:10:37.262Z,15.86
2017-10-10T11:11:46.195Z,15.87
2017-10-10T11:12:55.031Z,15.9
2017-10-10T11:14:03.869Z,16.01
2017-10-10T11:15:12.705Z,16
2017-10-10T11:16:21.542Z,16.21
2017-10-10T11:17:30.431Z,16.05
2017-10-10T11:18:39.265Z,16.12
2017-10-10T11:19:48.099Z,16.24
2017-10-10T11:20:56.944Z,16.24
2017-10-10T11:22:05.780Z,16.14
2017-10-10T11:23:14.816Z,16.02
2017-10-10T11:24:23.650Z,16.04
2017-10-10T11:25:32.486Z,16
2017-10-10T11:26:41.321Z,16.12
2017-10-10T11:27:50.504Z,16.12
2017-10-10T11:28:59.542Z,16.11
2017-10-10T11:30:08.728Z,16.08
2017-10-10T11:31:17.571Z,16.25
2017-10-10T11:32:26.401Z,16.33
2017-10-10T11:33:35.233Z,16.28
2017-10-10T11:34:44.220Z,16.28
2017-10-10T11:35:53.060Z,16.27
2017-10-10T11:37:01.908Z,16.25
2017-10-10T11:38:10.739Z,16.17
2017-10-10T11:39:19.573Z,16.15
2017-10-10T11:40:28.506Z,16.05
2017-10-10T11:41:37.348Z,16.02
2017-10-10T11:42:46.176Z,16.07
2017-10-10T11:43:55.012Z,16.01
2017-10-10T11:45:03.853Z,16.05
2017-10-10T11:46:12.687Z,16
2017-10-10T11:47:21.523Z,15.92
2017-10-10T11:48:30.703Z,15.93
2017-10-10T11:49:39.546Z,15.93
2017-10-10T11:50:48.378Z,15.96
2017-10-10T11:51:57.270Z,16.01
2017-10-10T11:53:06.105Z,15.97
2017-10-10T11:54:15.290Z,15.9
2017-10-10T11:55:24.124Z,15.89
2017-10-10T11:56:32.960Z,15.84
2017-10-10T11:57:41.902Z,15.87
2017-10-10T11:58:50.729Z,15.86
2017-10-10T11:59:59.566Z,15.87
2017-10-10T12:01:08.401Z,15.97
2017-10-10T12:02:17.236Z,15.93
2017-10-10T12:03:26.174Z,15.92
2017-10-10T12:04:35.009Z,15.86
2017-10-10T12:05:43.850Z,15.84
2017-10-10T12:06:52.678Z,15.69
2017-10-10T12:08:01.516Z,15.64
2017-10-10T12:09:10.351Z,15.72
2017-10-10T12:10:19.186Z,15.62
2017-10-10T12:11:28.020Z,15.59
2017-10-10T12:12:36.857Z,15.57
2017-10-10T12:13:45.693Z,15.56
2017-10-10T12:14:54.932Z,15.5
2017-10-10T12:16:03.765Z,15.53
2017-10-10T12:17:12.602Z,15.57
2017-10-10T12:18:21.438Z,15.49
2017-10-10T12:19:30.625Z,15.47
2017-10-10T12:20:39.852Z,15.49
2017-10-10T12:21:48.685Z,15.49
2017-10-10T12:22:57.518Z,15.49
2017-10-10T12:24:06.359Z,15.53
2017-10-10T12:25:15.194Z,15.36
2017-10-10T12:26:24.278Z,15.49
2017-10-10T12:27:33.114Z,15.49
2017-10-10T12:28:41.949Z,15.39
2017-10-10T12:29:50.790Z,15.38
2017-10-10T12:30:59.620Z,15.36
2017-10-10T12:32:08.558Z,15.31
2017-10-10T12:33:17.392Z,15.28
2017-10-10T12:34:26.234Z,15.34
2017-10-10T12:35:35.063Z,15.28
2017-10-10T12:36:43.903Z,15.28
2017-10-10T12:37:53.845Z,15.2
2017-10-10T12:39:02.683Z,15.31
2017-10-10T12:40:11.516Z,15.23
2017-10-10T12:41:20.349Z,15.25
2017-10-10T12:42:29.182Z,15.23
2017-10-10T12:43:38.178Z,15.21
2017-10-10T12:44:47.001Z,15.19
2017-10-10T12:45:55.836Z,15.23
2017-10-10T12:47:04.668Z,15.19
2017-10-10T12:48:13.502Z,15.23
2017-10-10T12:49:22.435Z,15.2
2017-10-10T12:50:31.271Z,15.11
2017-10-10T12:51:40.107Z,15.16
2017-10-10T12:52:48.944Z,15.13
2017-10-10T12:53:57.776Z,15.07
2017-10-10T12:55:06.658Z,15.11
2017-10-10T12:56:15.494Z,15.07
2017-10-10T12:57:24.328Z,15.1
2017-10-10T12:58:33.165Z,15.11
2017-10-10T12:59:41.997Z,15.1
2017-10-10T13:00:50.885Z,15.16
2017-10-10T13:01:59.724Z,15.11
2017-10-10T13:03:08.904Z,15.25
2017-10-10T13:04:17.742Z,15.25
2017-10-10T13:05:26.577Z,15.17
2017-10-10T13:06:35.512Z,15.21
2017-10-10T13:07:44.349Z,15.16
2017-10-10T13:08:53.189Z,15.11
2017-10-10T13:10:02.367Z,15.19
2017-10-10T13:11:11.202Z,15.09
2017-10-10T13:12:20.089Z,15.11
2017-10-10T13:13:28.923Z,14.95
2017-10-10T13:14:37.757Z,14.84
2017-10-10T13:15:46.596Z,14.78
2017-10-10T13:16:55.425Z,14.73
2017-10-10T13:18:05.209Z,14.65
2017-10-10T13:19:14.044Z,14.61
2017-10-10T13:20:22.877Z,14.61
2017-10-10T13:21:31.710Z,14.57
2017-10-10T13:22:40.543Z,14.51
2017-10-10T13:23:49.428Z,14.57
2017-10-10T13:24:58.261Z,14.5
2017-10-10T13:26:07.094Z,14.46
2017-10-10T13:27:15.931Z,14.51
2017-10-10T13:28:24.760Z,14.46
2017-10-10T13:29:33.845Z,14.51
2017-10-10T13:30:42.680Z,14.51
2017-10-10T13:31:51.516Z,14.51
2017-10-10T13:33:00.351Z,14.46
2017-10-10T13:34:09.187Z,14.42
2017-10-10T13:35:18.118Z,14.33
2017-10-10T13:36:26.952Z,14.32
2017-10-10T13:37:35.788Z,14.32
2017-10-10T13:38:44.620Z,14.28
2017-10-10T13:39:53.451Z,14.36
2017-10-10T13:41:02.689Z,14.35
2017-10-10T13:42:11.523Z,14.28
2017-10-10T13:43:20.361Z,14.29
2017-10-10T13:44:29.195Z,14.27
2017-10-10T13:45:38.029Z,14.29
2017-10-10T13:46:46.912Z,14.27
2017-10-10T13:47:55.749Z,14.27
2017-10-10T13:49:04.582Z,14.36
2017-10-10T13:50:13.414Z,14.22
2017-10-10T13:51:22.249Z,14.25
2017-10-10T13:52:31.332Z,14.29
2017-10-10T13:53:40.177Z,14.24
2017-10-10T13:54:49.006Z,14.29
2017-10-10T13:55:57.833Z,14.25
2017-10-10T13:57:06.666Z,14.22
2017-10-10T13:58:15.701Z,14.25
2017-10-10T13:59:24.539Z,14.24
2017-10-10T14:00:33.371Z,14.29
2017-10-10T14:01:42.205Z,14.28
2017-10-10T14:02:51.039Z,14.25
2017-10-10T14:04:00.038Z,14.35
2017-10-10T14:05:08.860Z,14.36
2017-10-10T14:06:17.692Z,14.28
2017-10-10T14:07:26.526Z,14.39
2017-10-10T14:08:35.359Z,14.29
2017-10-10T14:09:44.191Z,14.29
2017-10-10T14:10:53.026Z,14.29
2017-10-10T14:12:01.862Z,14.28
2017-10-10T14:13:10.693Z,14.29
2017-10-10T14:14:19.528Z,14.29
2017-10-10T14:15:28.561Z,14.32
2017-10-10T14:16:37.394Z,14.28
2017-10-10T14:17:46.234Z,14.33
2017-10-10T14:18:55.065Z,14.32
2017-10-10T14:20:04.245Z,14.27
2017-10-10T14:21:13.077Z,14.27
2017-10-10T14:22:21.911Z,14.32
2017-10-10T14:23:30.741Z,14.24
2017-10-10T14:24:39.574Z,14.29
2017-10-10T14:25:48.405Z,14.28
2017-10-10T14:26:57.288Z,14.29
2017-10-10T14:28:06.121Z,14.29
2017-10-10T14:29:14.955Z,14.24
2017-10-10T14:30:23.790Z,14.29
2017-10-10T14:31:32.622Z,14.22
2017-10-10T14:32:41.507Z,14.22
2017-10-10T14:33:50.341Z,14.21
2017-10-10T14:34:59.175Z,14.28
2017-10-10T14:36:08.363Z,14.24
2017-10-10T14:37:17.192Z,14.27
2017-10-10T14:38:26.171Z,14.21
2017-10-10T14:39:35.004Z,14.24
2017-10-10T14:40:43.838Z,14.29
2017-10-10T14:41:52.673Z,14.22
2017-10-10T14:43:01.506Z,14.18
2017-10-10T14:44:10.589Z,14.18
2017-10-10T14:45:19.420Z,14.22
2017-10-10T14:46:28.254Z,14.21
2017-10-10T14:47:37.094Z,14.21
2017-10-10T14:48:46.266Z,14.21
2017-10-10T14:49:55.147Z,14.14